Lawrenceville, IL

9:27 AM CDT on August 17, 2017 (GMT -0500)
Russell Allison Ambraw Levee District | | Change Station

Elev 420 ft 38.80 °N, 87.52 °W | Updated 9 minutes ago

Mostly Cloudy
Mostly Cloudy
78.5 °F
Feels Like 82 °F
N
13.0
Wind Variable Wind from SW
Gusts 16.0 mph

Today
High -- | Low -- °F
--% Chance of Precip.
Yesterday
High -- | Low -- °F
Precip. -- in
Pressure 29.89 in
Visibility 10.0 miles
Clouds Scattered Clouds 1200 ft
Mostly Cloudy 1800 ft
Mostly Cloudy 2700 ft
Heat Index 82 °F
Dew Point 75 °F
Humidity 89%
Rainfall 0.00 in
Snow Depth Not available.
6:06 AM 7:41 PM
Waning Crescent, 22% visible
METAR KAJG 171355Z AUTO 23010G18KT 10SM SCT012 BKN018 BKN027 26/24 A2989 RMK AO2 T02560238
Pressure 29.89 in
Visibility 10.0 miles
Clouds Scattered Clouds 1200 ft
Mostly Cloudy 1800 ft
Mostly Cloudy 2700 ft
Heat Index 82 °F
Dew Point 75 °F
Humidity 89%
Rainfall 0.00 in
Snow Depth Not available.
6:06 AM 7:41 PM
Waning Crescent, 22% visible
METAR KAJG 171355Z AUTO 23010G18KT 10SM SCT012 BKN018 BKN027 26/24 A2989 RMK AO2 T02560238

Get Severe Weather Alerts

Thanks for signing up!

Be on the lookout for a verification email in your inbox.

You'll start receiving the daily forecast at 6 AM.

×

10-Day Weather Forecast

Almanac

Astronomy

Aug. 17, 2017 Rise Set
Actual Time
Civil Twilight
Nautical Twilight
Astronomical Twilight
Moon
Length of Visible Light
Length of Day
Tomorrow will be .
, % of the Moon is Illuminated

Today's Extremes

State Highs State Lows

Community

WunderPhotos

Category 6

Welcome to Category 6. This is the collective home for Weather Underground's featured writeups by Dr. Jeff Masters (right), Bob Henson (left), Chris Burt, and other regular contributors.

Nearby

Air Quality

  Air Quality AQ Index Pollutant
Not available.

Snow Depth

Station Depth Elevation

Earthquake Activity

City Distance Mag. Time & Date
Minimum magnitude displayed is 2.5.

Coastal Water Temperatures

Place Temperature

Stations

Nearby Weather Stations

Station Location Temp. Windchill Dew Point Humidity Wind Precip. Elev Updated Type
                   

Watches & Warnings

There are currently no watches in effect.